createdAt,value
2018-11-23T00:00:32.531Z,3.28
2018-11-23T00:03:01.961Z,3.28
2018-11-23T00:05:30.918Z,3.26
2018-11-23T00:08:00.281Z,3.21
2018-11-23T00:10:30.576Z,3.22
2018-11-23T00:12:59.520Z,3.28
2018-11-23T00:15:28.734Z,3.25
2018-11-23T00:17:57.695Z,3.19
2018-11-23T00:20:27.812Z,3.27
2018-11-23T00:22:56.751Z,3.30
2018-11-23T00:25:26.581Z,3.31
2018-11-23T00:27:56.212Z,3.32
2018-11-23T00:30:26.365Z,3.36
2018-11-23T00:32:55.315Z,3.38
2018-11-23T00:35:26.462Z,3.38
2018-11-23T00:37:55.813Z,3.35
2018-11-23T00:40:30.883Z,3.34
2018-11-23T00:43:00.134Z,3.30
2018-11-23T00:45:29.231Z,3.28
2018-11-23T00:47:59.734Z,3.26
2018-11-23T00:50:28.981Z,3.24
2018-11-23T00:52:59.078Z,3.28
2018-11-23T00:55:28.698Z,3.20
2018-11-23T00:57:57.681Z,3.28
2018-11-23T01:00:27.935Z,3.24
2018-11-23T01:02:58.123Z,3.32
2018-11-23T01:05:27.447Z,3.31
2018-11-23T01:07:58.853Z,3.29
2018-11-23T01:10:28.998Z,3.24
2018-11-23T01:12:58.494Z,3.21
2018-11-23T01:15:27.441Z,3.24
2018-11-23T01:17:56.411Z,3.28
2018-11-23T01:20:26.323Z,3.31
2018-11-23T01:22:56.114Z,3.30
2018-11-23T01:25:26.209Z,3.32
2018-11-23T01:27:55.634Z,3.33
2018-11-23T01:30:26.861Z,3.28
2018-11-23T01:32:55.822Z,3.24
2018-11-23T01:35:24.758Z,3.29
2018-11-23T01:37:53.702Z,3.23
2018-11-23T01:40:25.722Z,3.25
2018-11-23T01:42:55.241Z,3.25
2018-11-23T01:45:24.258Z,3.24
2018-11-23T01:47:53.230Z,3.27
2018-11-23T01:50:23.556Z,3.34
2018-11-23T01:52:53.071Z,3.46
2018-11-23T01:55:22.879Z,3.36
2018-11-23T01:57:51.862Z,3.35
2018-11-23T02:00:22.386Z,3.36
2018-11-23T02:02:52.082Z,3.35
2018-11-23T02:05:21.023Z,3.36
2018-11-23T02:07:49.965Z,3.36
2018-11-23T02:10:19.274Z,3.33
2018-11-23T02:12:48.256Z,3.36
2018-11-23T02:15:18.813Z,3.42
2018-11-23T02:17:48.313Z,3.37
2018-11-23T02:20:18.344Z,3.36
2018-11-23T02:22:47.321Z,3.37
2018-11-23T02:25:16.458Z,3.31
2018-11-23T02:27:45.420Z,3.29
2018-11-23T02:30:16.749Z,3.35
2018-11-23T02:32:45.681Z,3.34
2018-11-23T02:35:15.258Z,3.35
2018-11-23T02:37:44.198Z,3.30
2018-11-23T02:40:14.360Z,3.28
2018-11-23T02:42:43.466Z,3.31
2018-11-23T02:45:16.661Z,3.27
2018-11-23T02:47:46.395Z,3.30
2018-11-23T02:50:15.302Z,3.36
2018-11-23T02:52:44.662Z,3.37
2018-11-23T02:55:14.703Z,3.33
2018-11-23T02:57:43.833Z,3.32
2018-11-23T03:00:15.131Z,3.30
2018-11-23T03:02:44.333Z,3.34
2018-11-23T03:05:15.366Z,3.40
2018-11-23T03:07:44.595Z,3.43
2018-11-23T03:10:14.382Z,3.39
2018-11-23T03:12:44.000Z,3.40
2018-11-23T03:15:14.821Z,3.47
2018-11-23T03:17:44.341Z,3.46
2018-11-23T03:20:15.094Z,3.43
2018-11-23T03:22:44.286Z,3.43
2018-11-23T03:25:13.773Z,3.47
2018-11-23T03:27:42.703Z,3.46
2018-11-23T03:30:17.704Z,3.53
2018-11-23T03:32:47.629Z,3.52
2018-11-23T03:35:17.033Z,3.54
2018-11-23T03:37:46.459Z,3.46
2018-11-23T03:40:15.429Z,3.50
2018-11-23T03:42:44.399Z,3.55
2018-11-23T03:45:13.961Z,3.54
2018-11-23T03:47:43.332Z,3.58
2018-11-23T03:50:13.347Z,3.59
2018-11-23T03:52:42.660Z,3.60
2018-11-23T03:55:11.637Z,3.49
2018-11-23T03:57:40.578Z,3.46
2018-11-23T04:00:17.356Z,3.41
2018-11-23T04:02:44.793Z,3.39
2018-11-23T04:05:13.770Z,3.45
2018-11-23T04:07:42.761Z,3.42
2018-11-23T04:10:13.285Z,3.47
2018-11-23T04:12:42.591Z,3.44
2018-11-23T04:15:12.394Z,3.47
2018-11-23T04:17:41.821Z,3.44
2018-11-23T04:20:12.454Z,3.44
2018-11-23T04:22:42.080Z,3.46
2018-11-23T04:25:11.632Z,3.50
2018-11-23T04:27:40.758Z,3.47
2018-11-23T04:30:11.392Z,3.52
2018-11-23T04:32:40.365Z,3.59
2018-11-23T04:35:11.419Z,3.64
2018-11-23T04:37:40.417Z,3.69
2018-11-23T04:40:10.537Z,3.65
2018-11-23T04:42:39.735Z,3.65
2018-11-23T04:45:09.037Z,3.69
2018-11-23T04:47:38.545Z,3.69
2018-11-23T04:50:08.883Z,3.67
2018-11-23T04:52:37.807Z,3.65
2018-11-23T04:55:07.765Z,3.66
2018-11-23T04:57:36.684Z,3.64
2018-11-23T05:00:09.962Z,3.60
2018-11-23T05:02:38.957Z,3.62
2018-11-23T05:05:09.061Z,3.60
2018-11-23T05:07:37.991Z,3.55
2018-11-23T05:10:09.034Z,3.62
2018-11-23T05:12:38.190Z,3.61
2018-11-23T05:15:08.123Z,3.66
2018-11-23T05:17:37.211Z,3.65
2018-11-23T05:20:07.046Z,3.65
2018-11-23T05:22:36.267Z,3.64
2018-11-23T05:25:05.717Z,3.62
2018-11-23T05:27:34.742Z,3.60
2018-11-23T05:30:03.727Z,3.60
2018-11-23T05:32:32.668Z,3.63
2018-11-23T05:35:01.616Z,3.67
2018-11-23T05:37:30.686Z,3.67
2018-11-23T05:39:59.743Z,3.67
2018-11-23T05:42:28.706Z,3.68
2018-11-23T05:44:57.676Z,3.70
2018-11-23T05:47:26.664Z,3.70
2018-11-23T05:49:55.598Z,3.68
2018-11-23T05:52:24.553Z,3.65
2018-11-23T05:54:53.917Z,3.64
2018-11-23T05:57:22.886Z,3.60
2018-11-23T05:59:51.909Z,3.72
2018-11-23T06:02:20.854Z,3.82
2018-11-23T06:04:49.790Z,3.81
2018-11-23T06:07:18.718Z,3.73
2018-11-23T06:09:47.686Z,3.82
2018-11-23T06:12:16.649Z,3.82
2018-11-23T06:14:45.647Z,3.79
2018-11-23T06:17:14.895Z,3.75
2018-11-23T06:19:43.842Z,3.67
2018-11-23T06:22:12.791Z,3.62
2018-11-23T06:24:41.771Z,3.58
2018-11-23T06:27:10.767Z,3.58
2018-11-23T06:29:39.723Z,3.55
2018-11-23T06:32:20.075Z,3.59
2018-11-23T06:34:49.074Z,3.62
2018-11-23T06:37:18.053Z,3.59
2018-11-23T06:39:47.086Z,3.60
2018-11-23T06:42:16.049Z,3.62
2018-11-23T06:44:45.337Z,3.66
2018-11-23T06:47:14.373Z,3.64
2018-11-23T06:49:44.535Z,3.62
2018-11-23T06:52:13.863Z,3.67
2018-11-23T06:54:42.792Z,3.65
2018-11-23T06:57:11.749Z,3.69
2018-11-23T06:59:40.680Z,3.69
2018-11-23T07:02:09.606Z,3.78
2018-11-23T07:04:38.606Z,3.76
2018-11-23T07:07:07.793Z,3.80
2018-11-23T07:09:36.717Z,3.81
2018-11-23T07:12:05.798Z,3.79
2018-11-23T07:14:34.753Z,3.82
2018-11-23T07:17:03.731Z,3.89
2018-11-23T07:19:32.678Z,3.93
2018-11-23T07:22:01.618Z,3.99
2018-11-23T07:24:30.575Z,4.00
2018-11-23T07:26:59.525Z,3.98
2018-11-23T07:29:28.462Z,4.01
2018-11-23T07:31:57.439Z,3.97
2018-11-23T07:34:26.514Z,3.98
2018-11-23T07:36:55.527Z,3.98
2018-11-23T07:39:36.055Z,4.02
2018-11-23T07:42:23.709Z,4.04
2018-11-23T07:44:52.737Z,4.08
2018-11-23T07:47:21.702Z,4.06
2018-11-23T07:49:50.667Z,4.04
2018-11-23T07:52:19.609Z,4.08
2018-11-23T07:54:48.526Z,4.09
2018-11-23T07:57:17.454Z,4.11
2018-11-23T07:59:46.394Z,4.14
2018-11-23T08:02:15.343Z,4.11
2018-11-23T08:04:44.405Z,4.15
2018-11-23T08:07:13.340Z,4.17
2018-11-23T08:09:42.562Z,4.20
2018-11-23T08:12:11.495Z,4.22
2018-11-23T08:14:40.546Z,4.24
2018-11-23T08:17:09.537Z,4.27
2018-11-23T08:19:38.768Z,4.37
2018-11-23T08:22:07.739Z,4.37
2018-11-23T08:24:36.763Z,4.37
2018-11-23T08:27:05.947Z,4.49
2018-11-23T08:29:34.901Z,4.38
2018-11-23T08:32:03.894Z,4.39
2018-11-23T08:34:32.833Z,4.45
2018-11-23T08:37:01.753Z,4.44
2018-11-23T08:39:30.706Z,4.48
2018-11-23T08:41:59.774Z,4.54
2018-11-23T08:44:28.763Z,4.65
2018-11-23T08:46:57.703Z,4.75
2018-11-23T08:49:26.669Z,4.79
2018-11-23T08:51:55.614Z,4.87
2018-11-23T08:54:24.535Z,4.98
2018-11-23T08:56:53.490Z,4.84
2018-11-23T08:59:22.474Z,4.87
2018-11-23T09:01:51.429Z,4.93
2018-11-23T09:04:20.554Z,4.97
2018-11-23T09:06:49.621Z,5.08
2018-11-23T09:09:18.584Z,5.14
2018-11-23T09:11:47.649Z,5.09
2018-11-23T09:14:16.583Z,5.14
2018-11-23T09:16:45.517Z,5.04
2018-11-23T09:19:14.507Z,5.12
2018-11-23T09:21:43.463Z,5.21
2018-11-23T09:24:12.401Z,5.51
2018-11-23T09:26:41.342Z,5.84
2018-11-23T09:29:10.274Z,6.22
2018-11-23T09:31:39.205Z,6.62
2018-11-23T09:34:08.130Z,6.86
2018-11-23T09:36:37.083Z,6.95
2018-11-23T09:39:07.712Z,7.70
2018-11-23T09:41:36.651Z,7.73
2018-11-23T09:44:05.638Z,7.62
2018-11-23T09:46:34.594Z,7.19
2018-11-23T09:49:03.522Z,7.19
2018-11-23T09:51:32.597Z,6.96
2018-11-23T09:54:01.528Z,6.62
2018-11-23T09:56:30.503Z,6.66
2018-11-23T09:58:59.485Z,6.57
2018-11-23T10:01:28.679Z,6.55
2018-11-23T10:03:57.618Z,6.78
2018-11-23T10:06:26.553Z,6.58
2018-11-23T10:08:55.888Z,6.65
2018-11-23T10:11:24.804Z,7.47
2018-11-23T10:13:53.748Z,7.85
2018-11-23T10:16:22.726Z,8.27
2018-11-23T10:18:51.924Z,8.09
2018-11-23T10:21:21.088Z,7.98
2018-11-23T10:23:50.116Z,8.09
2018-11-23T10:26:19.115Z,8.42
2018-11-23T10:28:48.056Z,8.53
2018-11-23T10:31:23.370Z,8.22
2018-11-23T10:33:52.583Z,8.03
2018-11-23T10:36:21.512Z,7.81
2018-11-23T10:38:50.455Z,7.56
2018-11-23T10:41:19.400Z,7.67
2018-11-23T10:43:48.372Z,7.93
2018-11-23T10:46:17.353Z,8.44
2018-11-23T10:48:46.293Z,8.14
2018-11-23T10:51:15.467Z,8.33
2018-11-23T10:56:13.426Z,8.90
2018-11-23T10:58:42.364Z,10.15
2018-11-23T11:01:16.698Z,11.23
2018-11-23T11:03:51.327Z,10.63
2018-11-23T11:06:25.632Z,9.80
2018-11-23T11:08:54.606Z,10.65
2018-11-23T11:11:23.540Z,10.78
2018-11-23T11:13:52.475Z,10.47
2018-11-23T11:16:21.443Z,9.97
2018-11-23T11:18:50.570Z,9.72
2018-11-23T11:21:19.593Z,9.17
2018-11-23T11:23:48.578Z,10.20
2018-11-23T11:26:17.531Z,10.80
2018-11-23T11:28:46.619Z,11.16
2018-11-23T11:31:15.566Z,11.55
2018-11-23T11:33:44.527Z,10.78
2018-11-23T11:36:13.506Z,10.71
2018-11-23T11:38:42.435Z,10.55
2018-11-23T11:41:11.375Z,10.56
2018-11-23T11:43:40.599Z,10.49
2018-11-23T11:46:10.372Z,9.70
2018-11-23T11:48:39.508Z,10.30
2018-11-23T11:51:09.459Z,11.29
2018-11-23T11:53:38.399Z,11.38
2018-11-23T11:56:07.719Z,10.49
2018-11-23T11:58:36.830Z,11.47
2018-11-23T12:01:06.006Z,12.20
2018-11-23T12:03:34.947Z,12.32
2018-11-23T12:06:03.906Z,12.08
2018-11-23T12:08:32.926Z,11.73
2018-11-23T12:11:01.864Z,10.88
2018-11-23T12:13:30.984Z,11.37
2018-11-23T12:16:00.144Z,10.55
2018-11-23T12:18:29.082Z,10.89
2018-11-23T12:20:58.023Z,10.53
2018-11-23T12:23:26.983Z,10.34
2018-11-23T12:25:55.924Z,10.06
2018-11-23T12:28:24.871Z,10.25
2018-11-23T12:30:53.848Z,10.20
2018-11-23T12:33:22.783Z,10.16
2018-11-23T12:35:51.757Z,9.48
2018-11-23T12:38:20.795Z,9.59
2018-11-23T12:40:49.737Z,9.35
2018-11-23T12:43:18.661Z,9.24
2018-11-23T12:45:47.622Z,9.25
2018-11-23T12:48:16.554Z,9.31
2018-11-23T12:50:45.509Z,9.72
2018-11-23T12:53:14.443Z,9.31
2018-11-23T12:55:43.382Z,9.01
2018-11-23T12:58:12.424Z,9.47
2018-11-23T13:00:41.381Z,9.50
2018-11-23T13:03:10.326Z,9.63
2018-11-23T13:05:39.296Z,9.01
2018-11-23T13:08:08.267Z,8.85
2018-11-23T13:10:37.226Z,8.30
2018-11-23T13:13:06.151Z,8.34
2018-11-23T13:15:35.149Z,8.57
2018-11-23T13:18:04.094Z,8.69
2018-11-23T13:20:33.081Z,8.79
2018-11-23T13:23:02.076Z,8.37
2018-11-23T13:25:32.307Z,8.07
2018-11-23T13:28:01.493Z,8.41
2018-11-23T13:30:34.615Z,8.18
2018-11-23T13:33:03.557Z,8.24
2018-11-23T13:35:32.524Z,8.35
2018-11-23T13:38:01.473Z,8.17
2018-11-23T13:40:30.922Z,8.04
2018-11-23T13:43:00.740Z,7.88
2018-11-23T13:45:31.156Z,7.53
2018-11-23T13:48:00.131Z,7.54
2018-11-23T13:50:29.222Z,7.56
2018-11-23T13:52:59.668Z,7.38
2018-11-23T13:55:28.606Z,7.42
2018-11-23T13:57:57.543Z,7.46
2018-11-23T14:00:27.993Z,7.53
2018-11-23T14:02:56.950Z,7.43
2018-11-23T14:05:27.682Z,7.30
2018-11-23T14:07:58.451Z,7.15
2018-11-23T14:10:28.097Z,6.96
2018-11-23T14:12:58.765Z,6.89
2018-11-23T14:15:29.709Z,6.77
2018-11-23T14:17:59.626Z,6.70
2018-11-23T14:20:28.840Z,6.70
2018-11-23T14:22:57.799Z,6.53
2018-11-23T14:25:28.075Z,6.45
2018-11-23T14:27:57.451Z,6.40
2018-11-23T14:30:28.127Z,6.32
2018-11-23T14:32:57.283Z,6.35
2018-11-23T14:35:28.733Z,6.23
2018-11-23T14:37:58.956Z,6.22
2018-11-23T14:40:27.937Z,6.05
2018-11-23T14:42:57.442Z,5.94
2018-11-23T14:45:28.043Z,5.78
2018-11-23T14:47:57.892Z,5.70
2018-11-23T14:50:28.301Z,5.60
2018-11-23T14:52:57.720Z,5.56
2018-11-23T14:55:27.137Z,5.44
2018-11-23T14:57:56.553Z,5.38
2018-11-23T15:00:28.236Z,5.29
2018-11-23T15:02:58.474Z,5.20
2018-11-23T15:05:27.450Z,5.07
2018-11-23T15:07:56.645Z,5.04
2018-11-23T15:10:26.854Z,4.99
2018-11-23T15:12:57.258Z,4.96
2018-11-23T15:15:27.787Z,4.91
2018-11-23T15:17:57.395Z,4.85
2018-11-23T15:20:30.888Z,4.80
2018-11-23T15:23:02.427Z,4.76
2018-11-23T15:25:31.377Z,4.75
2018-11-23T15:28:00.329Z,4.63
2018-11-23T15:30:30.699Z,4.61
2018-11-23T15:32:59.859Z,4.53
2018-11-23T15:35:29.836Z,4.49
2018-11-23T15:37:58.827Z,4.45
2018-11-23T15:40:28.779Z,4.39
2018-11-23T15:42:59.556Z,4.37
2018-11-23T15:45:29.572Z,4.37
2018-11-23T15:47:59.385Z,4.35
2018-11-23T15:50:37.291Z,4.33
2018-11-23T15:53:07.662Z,4.23
2018-11-23T15:55:37.497Z,4.21
2018-11-23T15:58:08.030Z,4.18
2018-11-23T16:00:38.357Z,4.11
2018-11-23T16:03:11.235Z,4.07
2018-11-23T16:05:40.340Z,4.02
2018-11-23T16:08:11.259Z,4.03
2018-11-23T16:10:41.622Z,4.02
2018-11-23T16:13:12.447Z,3.99
2018-11-23T16:15:41.366Z,3.98
2018-11-23T16:18:10.943Z,3.94
2018-11-23T16:20:41.876Z,3.92
2018-11-23T16:23:13.334Z,3.92
2018-11-23T16:25:42.920Z,3.93
2018-11-23T16:28:12.339Z,3.91
2018-11-23T16:30:43.493Z,3.89
2018-11-23T16:33:14.950Z,3.86
2018-11-23T16:35:44.012Z,3.82
2018-11-23T16:38:15.323Z,3.80
2018-11-23T16:40:45.908Z,3.81
2018-11-23T16:43:15.523Z,3.79
2018-11-23T16:45:44.862Z,3.80
2018-11-23T16:48:14.522Z,3.76
2018-11-23T16:50:44.004Z,3.72
2018-11-23T16:53:13.144Z,3.73
2018-11-23T16:55:42.059Z,3.74
2018-11-23T16:58:12.105Z,3.73
2018-11-23T17:00:42.356Z,3.72
2018-11-23T17:03:14.151Z,3.72
2018-11-23T17:05:47.903Z,3.72
2018-11-23T17:08:17.359Z,3.73
2018-11-23T17:10:46.336Z,3.73
2018-11-23T17:13:15.366Z,3.68
2018-11-23T17:15:44.287Z,3.67
2018-11-23T17:18:13.442Z,3.64
2018-11-23T17:20:42.614Z,3.60
2018-11-23T17:23:12.436Z,3.56
2018-11-23T17:25:41.400Z,3.57
2018-11-23T17:28:11.157Z,3.54
2018-11-23T17:30:40.234Z,3.53
2018-11-23T17:33:09.176Z,3.56
2018-11-23T17:35:38.159Z,3.53
2018-11-23T17:38:07.238Z,3.54
2018-11-23T17:40:37.963Z,3.56
2018-11-23T17:43:07.153Z,3.56
2018-11-23T17:47:05.590Z,3.55
2018-11-23T17:49:34.547Z,3.56
2018-11-23T17:52:03.494Z,3.55
2018-11-23T17:54:32.470Z,3.59
2018-11-23T17:57:01.418Z,3.59
2018-11-23T17:59:38.617Z,3.59
2018-11-23T18:02:07.538Z,3.57
2018-11-23T18:04:36.472Z,3.61
2018-11-23T18:07:05.441Z,3.57
2018-11-23T18:09:34.445Z,3.59
2018-11-23T18:12:03.542Z,3.55
2018-11-23T18:14:32.555Z,3.60
2018-11-23T18:17:01.531Z,3.60
2018-11-23T18:19:30.511Z,3.57
2018-11-23T18:21:59.474Z,3.55
2018-11-23T18:24:28.414Z,3.52
2018-11-23T18:26:57.350Z,3.52
2018-11-23T18:29:26.351Z,3.50
2018-11-23T18:31:55.592Z,3.56
2018-11-23T18:34:24.633Z,3.55
2018-11-23T18:36:53.576Z,3.58
2018-11-23T18:39:22.521Z,3.57
2018-11-23T18:41:51.481Z,3.54
2018-11-23T18:44:20.439Z,3.51
2018-11-23T18:46:49.377Z,3.57
2018-11-23T18:49:18.320Z,3.53
2018-11-23T18:51:47.264Z,3.49
2018-11-23T18:54:16.200Z,3.51
2018-11-23T18:56:45.141Z,3.48
2018-11-23T18:59:14.123Z,3.51
2018-11-23T19:01:43.038Z,3.54
2018-11-23T19:04:12.004Z,3.53
2018-11-23T19:06:40.928Z,3.58
2018-11-23T19:09:10.159Z,3.52
2018-11-23T19:11:39.328Z,3.57
2018-11-23T19:14:08.599Z,3.51
2018-11-23T19:16:37.749Z,3.49
2018-11-23T19:19:07.477Z,3.50
2018-11-23T19:21:36.415Z,3.51
2018-11-23T19:24:05.630Z,3.50
2018-11-23T19:26:34.563Z,3.58
2018-11-23T19:29:03.523Z,3.54
2018-11-23T19:31:32.510Z,3.55
2018-11-23T19:34:02.329Z,3.54
2018-11-23T19:36:31.880Z,3.54
2018-11-23T19:39:01.000Z,3.63
2018-11-23T19:41:30.869Z,3.58
2018-11-23T19:43:59.847Z,3.58
2018-11-23T19:46:29.025Z,3.53
2018-11-23T19:48:58.612Z,3.54
2018-11-23T19:51:27.873Z,3.56
2018-11-23T19:53:56.909Z,3.52
2018-11-23T19:56:25.858Z,3.52
2018-11-23T19:58:55.207Z,3.58
2018-11-23T20:01:24.152Z,3.62
2018-11-23T20:03:53.602Z,3.62
2018-11-23T20:06:22.619Z,3.64
2018-11-23T20:08:51.584Z,3.62
2018-11-23T20:11:20.571Z,3.62
2018-11-23T20:13:49.623Z,3.59
2018-11-23T20:16:18.625Z,3.65
2018-11-23T20:18:47.625Z,3.66
2018-11-23T20:21:16.904Z,3.67
2018-11-23T20:23:45.874Z,3.67
2018-11-23T20:26:14.967Z,3.65
2018-11-23T20:28:43.918Z,3.59
2018-11-23T20:31:12.935Z,3.68
2018-11-23T20:33:41.932Z,3.66
2018-11-23T20:36:10.987Z,3.66
2018-11-23T20:38:39.991Z,3.59
2018-11-23T20:41:09.027Z,3.57
2018-11-23T20:43:38.138Z,3.55
2018-11-23T20:46:07.226Z,3.58
2018-11-23T20:48:36.178Z,3.55
2018-11-23T20:51:05.366Z,3.54
2018-11-23T20:53:35.121Z,3.54
2018-11-23T20:56:05.165Z,3.50
2018-11-23T20:58:34.152Z,3.55
2018-11-23T21:01:03.227Z,3.49
2018-11-23T21:03:34.305Z,3.50
2018-11-23T21:06:05.124Z,3.51
2018-11-23T21:08:35.985Z,3.51
2018-11-23T21:11:05.026Z,3.52
2018-11-23T21:13:34.055Z,3.56
2018-11-23T21:16:03.052Z,3.56
2018-11-23T21:18:31.961Z,3.61
2018-11-23T21:21:00.906Z,3.58
2018-11-23T21:23:29.874Z,3.58
2018-11-23T21:25:58.847Z,3.60
2018-11-23T21:28:27.769Z,3.65
2018-11-23T21:30:56.911Z,3.68
2018-11-23T21:33:25.850Z,3.78
2018-11-23T21:35:54.778Z,3.80
2018-11-23T21:38:23.710Z,3.77
2018-11-23T21:40:58.014Z,3.85
2018-11-23T21:43:26.950Z,3.85
2018-11-23T21:45:55.915Z,3.79
2018-11-23T21:48:24.847Z,3.82
2018-11-23T21:50:53.795Z,3.85
2018-11-23T21:53:22.734Z,3.87
2018-11-23T21:55:51.681Z,3.93
2018-11-23T21:58:20.966Z,3.94
2018-11-23T22:00:49.941Z,3.91
2018-11-23T22:03:18.944Z,3.94
2018-11-23T22:05:47.927Z,3.93
2018-11-23T22:08:16.871Z,3.96
2018-11-23T22:10:45.811Z,3.92
2018-11-23T22:13:14.730Z,3.96
2018-11-23T22:15:43.686Z,4.00
2018-11-23T22:18:12.838Z,4.01
2018-11-23T22:20:41.795Z,3.99
2018-11-23T22:23:10.779Z,3.98
2018-11-23T22:25:39.765Z,4.02
2018-11-23T22:28:08.708Z,4.06
2018-11-23T22:30:37.876Z,4.07
2018-11-23T22:33:09.301Z,4.09
2018-11-23T22:35:39.022Z,4.12
2018-11-23T22:38:07.978Z,4.15
2018-11-23T22:40:36.983Z,4.07
2018-11-23T22:43:06.546Z,4.08
2018-11-23T22:45:35.510Z,4.17
2018-11-23T22:48:04.475Z,4.19
2018-11-23T22:50:33.374Z,4.20
2018-11-23T22:53:02.341Z,4.20
2018-11-23T22:55:31.452Z,4.28
2018-11-23T22:58:00.451Z,4.27
2018-11-23T23:00:34.830Z,4.24
2018-11-23T23:03:04.122Z,4.26
2018-11-23T23:05:32.979Z,4.21
2018-11-23T23:08:01.910Z,4.37
2018-11-23T23:10:30.865Z,4.29
2018-11-23T23:12:59.794Z,4.27
2018-11-23T23:15:28.726Z,4.30
2018-11-23T23:17:57.821Z,4.30
2018-11-23T23:20:26.790Z,4.32
2018-11-23T23:22:55.751Z,4.32
2018-11-23T23:25:24.680Z,4.32
2018-11-23T23:27:53.622Z,4.37
2018-11-23T23:30:22.573Z,4.35
2018-11-23T23:32:51.511Z,4.34
2018-11-23T23:35:20.449Z,4.36
2018-11-23T23:37:49.406Z,4.37
2018-11-23T23:40:18.612Z,4.35
2018-11-23T23:42:48.055Z,4.39
2018-11-23T23:45:17.848Z,4.44
2018-11-23T23:47:46.825Z,4.43
2018-11-23T23:50:17.751Z,4.47
2018-11-23T23:52:46.727Z,4.50
2018-11-23T23:55:15.673Z,4.56
2018-11-23T23:57:45.385Z,4.62
